Time;durP1;ratioP1;P1;durP2;ratioP2;P2;SDS_P1;SDS_P2;PMS_P1;PMS_P2;Temp;Humidity;BMP_temperature;BMP_pressure;BME280_temperature;BME280_humidity;BME280_pressure;Samples;Min_cycle;Max_cycle;Signal;HPM_P1;HPM_P2
2023/04/20 00:00:57;;;;;;;5.90;1.33;;;7.80;94.30;;;;;;4040744;29;20052;-89
2023/04/20 00:02:59;;;;;;;3.08;1.27;;;8.00;94.70;;;;;;4039893;29;20053;-89
2023/04/20 00:05:00;;;;;;;4.32;1.50;;;7.90;94.50;;;;;;4057079;29;20055;-89
2023/04/20 00:07:01;;;;;;;4.85;1.25;;;7.70;94.60;;;;;;4039722;29;20077;-89
2023/04/20 00:09:03;;;;;;;7.55;1.63;;;7.70;94.80;;;;;;4024734;29;20110;-89
2023/04/20 00:11:04;;;;;;;5.35;1.40;;;7.70;95.00;;;;;;4040554;29;20063;-89
2023/04/20 00:13:05;;;;;;;3.30;1.30;;;7.70;95.30;;;;;;4024945;29;20539;-89
2023/04/20 00:15:06;;;;;;;5.03;1.80;;;7.70;95.40;;;;;;4056271;29;20453;-89
2023/04/20 00:17:07;;;;;;;3.80;1.25;;;7.70;95.30;;;;;;4056871;29;20410;-89
2023/04/20 00:19:08;;;;;;;3.63;1.10;;;7.70;95.60;;;;;;4038986;29;20049;-89
2023/04/20 00:21:09;;;;;;;6.05;1.30;;;7.70;95.60;;;;;;4039720;29;20544;-89
2023/04/20 00:23:10;;;;;;;5.35;1.85;;;7.70;95.80;;;;;;4055772;29;20041;-89
2023/04/20 00:25:11;;;;;;;5.60;1.60;;;7.70;96.00;;;;;;4041767;29;20045;-89
2023/04/20 00:27:12;;;;;;;3.90;1.20;;;7.70;96.00;;;;;;4009252;29;20045;-89
2023/04/20 00:29:12;;;;;;;2.05;1.20;;;7.70;96.20;;;;;;4024703;29;20127;-89
2023/04/20 00:31:13;;;;;;;4.97;1.50;;;7.70;96.10;;;;;;4053791;29;20040;-89
2023/04/20 00:33:15;;;;;;;2.28;1.08;;;7.70;96.30;;;;;;4040242;29;20136;-89
2023/04/20 00:35:17;;;;;;;3.72;1.05;;;7.30;96.30;;;;;;4025222;29;20058;-89
2023/04/20 00:37:17;;;;;;;2.08;1.25;;;7.60;96.60;;;;;;4038499;29;20053;-89
2023/04/20 00:39:18;;;;;;;6.95;1.67;;;7.60;96.60;;;;;;4010362;29;20060;-89
2023/04/20 00:41:21;;;;;;;2.10;1.08;;;7.70;96.50;;;;;;4041541;29;20052;-89
2023/04/20 00:43:21;;;;;;;4.53;1.30;;;7.70;96.60;;;;;;4023845;29;20209;-89
2023/04/20 00:45:22;;;;;;;4.47;1.98;;;7.70;96.70;;;;;;4023657;29;20552;-89
2023/04/20 00:47:24;;;;;;;2.95;1.10;;;7.70;96.80;;;;;;4023996;29;20057;-89
2023/04/20 00:49:29;;;;;;;3.00;1.10;;;7.70;97.00;;;;;;4024583;29;20443;-89
2023/04/20 00:51:31;;;;;;;6.93;1.73;;;7.80;97.10;;;;;;4040716;29;20409;-89
2023/04/20 00:53:34;;;;;;;2.25;1.10;;;7.80;97.10;;;;;;4008865;29;20053;-88
2023/04/20 00:55:36;;;;;;;3.63;1.38;;;7.80;97.40;;;;;;4023984;29;20061;-88
2023/04/20 00:57:40;;;;;;;3.10;0.98;;;7.80;97.40;;;;;;4038309;29;20502;-89
2023/04/20 00:59:41;;;;;;;2.83;1.30;;;7.80;97.50;;;;;;4056273;29;20079;-88
2023/04/20 01:01:43;;;;;;;4.55;1.42;;;7.70;97.90;;;;;;4022610;29;20468;-89
2023/04/20 01:03:44;;;;;;;4.97;1.20;;;7.70;97.80;;;;;;4024545;29;20053;-89
2023/04/20 01:05:45;;;;;;;4.00;1.13;;;8.00;97.70;;;;;;4056176;29;20063;-89
2023/04/20 01:07:46;;;;;;;2.13;1.20;;;7.70;98.00;;;;;;4040452;29;20037;-89
2023/04/20 01:09:46;;;;;;;4.88;1.50;;;8.20;98.20;;;;;;4056705;29;20053;-90
2023/04/20 01:11:47;;;;;;;7.75;1.90;;;7.70;98.20;;;;;;4025809;29;20064;-90
2023/04/20 01:13:49;;;;;;;3.13;1.23;;;7.70;98.20;;;;;;4055993;29;20108;-90
2023/04/20 01:15:50;;;;;;;2.67;1.08;;;7.70;98.30;;;;;;4039718;29;20106;-90
2023/04/20 01:17:52;;;;;;;19.35;2.28;;;7.70;98.30;;;;;;4029015;29;20491;-90
2023/04/20 01:19:54;;;;;;;3.95;1.10;;;7.80;98.60;;;;;;4056114;29;20045;-90
2023/04/20 01:21:57;;;;;;;3.25;1.48;;;7.80;98.50;;;;;;4041626;29;20037;-89
2023/04/20 01:23:58;;;;;;;3.45;1.13;;;8.20;98.50;;;;;;4040501;29;20299;-90
2023/04/20 01:25:59;;;;;;;7.18;1.23;;;7.80;98.40;;;;;;4056097;29;20029;-90
2023/04/20 01:28:00;;;;;;;2.03;1.30;;;7.80;98.60;;;;;;4054717;29;20045;-89
2023/04/20 01:30:01;;;;;;;3.25;1.23;;;7.70;98.60;;;;;;4038757;29;20042;-89
2023/04/20 01:32:04;;;;;;;3.30;1.10;;;7.80;98.80;;;;;;4041800;29;20059;-90
2023/04/20 01:34:04;;;;;;;5.57;1.88;;;7.70;98.90;;;;;;4056035;29;20048;-89
2023/04/20 01:36:07;;;;;;;2.58;1.40;;;7.70;99.10;;;;;;4025050;29;20569;-90
2023/04/20 01:38:08;;;;;;;3.85;2.53;;;7.70;99.00;;;;;;4039713;29;20053;-90
2023/04/20 01:40:11;;;;;;;2.78;1.30;;;7.70;99.20;;;;;;4057307;29;20413;-90
2023/04/20 01:42:12;;;;;;;4.38;1.35;;;7.60;99.20;;;;;;4027065;29;20058;-90
2023/04/20 01:44:14;;;;;;;6.78;1.27;;;7.60;99.50;;;;;;4039233;29;20597;-90
2023/04/20 01:46:15;;;;;;;3.40;1.25;;;7.60;99.60;;;;;;4058088;29;20113;-90
2023/04/20 01:48:17;;;;;;;2.60;1.40;;;7.50;99.70;;;;;;4022998;29;20050;-90
2023/04/20 01:50:18;;;;;;;4.95;2.58;;;7.40;99.80;;;;;;4056407;29;20044;-90
2023/04/20 01:52:20;;;;;;;3.78;1.42;;;7.40;99.90;;;;;;4028975;29;20498;-89
2023/04/20 01:54:22;;;;;;;3.97;1.63;;;7.40;99.90;;;;;;4040990;29;20040;-90
2023/04/20 01:56:23;;;;;;;3.28;1.25;;;7.50;99.90;;;;;;4041000;29;20057;-90
2023/04/20 01:58:25;;;;;;;2.15;1.10;;;8.20;99.90;;;;;;4039775;29;20055;-90
2023/04/20 02:00:26;;;;;;;3.95;1.55;;;7.30;99.90;;;;;;4048153;29;20104;-90
2023/04/20 02:02:27;;;;;;;5.20;1.30;;;7.30;99.90;;;;;;4036933;29;20049;-90
2023/04/20 02:04:29;;;;;;;8.38;1.25;;;7.10;99.90;;;;;;4022321;29;20042;-89
2023/04/20 02:06:31;;;;;;;6.00;1.50;;;7.00;99.90;;;;;;4053481;29;20123;-89
2023/04/20 02:08:34;;;;;;;3.83;1.95;;;6.90;99.90;;;;;;4023131;29;20045;-90
2023/04/20 02:10:35;;;;;;;6.18;1.70;;;7.00;99.90;;;;;;4022548;29;20585;-89
2023/04/20 02:12:35;;;;;;;5.22;1.45;;;7.30;99.90;;;;;;4069362;29;20052;-89
2023/04/20 02:14:36;;;;;;;6.65;1.38;;;6.90;99.90;;;;;;4053199;29;20049;-90
2023/04/20 02:16:38;;;;;;;2.88;1.35;;;6.90;99.90;;;;;;4047046;29;20553;-89
2023/04/20 02:18:39;;;;;;;6.95;2.83;;;6.80;99.90;;;;;;4047820;29;20052;-90
2023/04/20 02:20:42;;;;;;;3.85;1.45;;;6.70;99.90;;;;;;4047122;29;20087;-89
2023/04/20 02:22:43;;;;;;;4.25;1.60;;;7.00;99.90;;;;;;4063051;29;20047;-90
2023/04/20 02:24:44;;;;;;;4.70;1.52;;;6.90;99.90;;;;;;4062055;29;20083;-89
2023/04/20 02:26:45;;;;;;;2.88;1.50;;;6.70;99.90;;;;;;4047300;29;20064;-89
2023/04/20 02:28:45;;;;;;;5.03;1.63;;;7.40;99.90;;;;;;4041839;29;20053;-89
2023/04/20 02:30:47;;;;;;;6.75;2.03;;;6.70;99.90;;;;;;4025288;29;20064;-90
2023/04/20 02:32:49;;;;;;;5.97;1.77;;;6.70;99.90;;;;;;4025246;29;20029;-89
2023/04/20 02:34:51;;;;;;;5.57;1.50;;;6.80;99.90;;;;;;4040262;29;20071;-89
2023/04/20 02:36:52;;;;;;;8.32;1.75;;;7.00;99.90;;;;;;4057529;29;20045;-89
2023/04/20 02:38:53;;;;;;;6.35;1.60;;;6.20;99.90;;;;;;4056967;29;20124;-90
2023/04/20 02:40:56;;;;;;;9.30;2.25;;;6.80;99.90;;;;;;4024880;29;20061;-90
2023/04/20 02:42:57;;;;;;;5.50;1.42;;;6.90;99.90;;;;;;4025580;29;20497;-89
2023/04/20 02:44:58;;;;;;;3.88;1.50;;;7.00;99.90;;;;;;4039931;29;20577;-89
2023/04/20 02:46:58;;;;;;;5.53;2.17;;;6.90;99.90;;;;;;4041804;29;20059;-89
2023/04/20 02:49:02;;;;;;;5.20;2.03;;;7.00;99.90;;;;;;4025055;29;20055;-90
2023/04/20 02:51:03;;;;;;;8.02;1.90;;;6.90;99.90;;;;;;4058787;29;20053;-90
2023/04/20 02:53:04;;;;;;;7.07;1.60;;;7.10;99.90;;;;;;4026143;29;20423;-89
2023/04/20 02:55:07;;;;;;;3.15;1.38;;;7.50;99.90;;;;;;4026165;29;20080;-90
2023/04/20 02:57:10;;;;;;;5.13;1.83;;;7.20;99.90;;;;;;4058239;29;20041;-89
2023/04/20 02:59:11;;;;;;;3.47;1.80;;;7.30;99.90;;;;;;4025339;29;20478;-90
2023/04/20 03:01:12;;;;;;;5.95;1.70;;;7.30;99.90;;;;;;4035072;29;20092;-89
2023/04/20 03:03:15;;;;;;;3.30;1.50;;;6.60;99.90;;;;;;4039918;29;20559;-89
2023/04/20 03:05:15;;;;;;;4.10;1.67;;;8.20;99.90;;;;;;4027856;29;20054;-89
2023/04/20 03:07:17;;;;;;;4.60;1.90;;;7.50;99.90;;;;;;4024160;29;20168;-89
2023/04/20 03:09:19;;;;;;;4.32;1.50;;;7.60;99.90;;;;;;4024768;29;20092;-90
2023/04/20 03:11:19;;;;;;;8.35;1.83;;;7.50;99.90;;;;;;4025543;29;20495;-89
2023/04/20 03:13:21;;;;;;;6.60;1.70;;;7.60;99.90;;;;;;4041685;29;20068;-89
2023/04/20 03:15:22;;;;;;;4.07;1.55;;;6.30;99.90;;;;;;4026408;29;20037;-89
2023/04/20 03:17:25;;;;;;;4.72;2.00;;;7.60;99.90;;;;;;4009748;29;20046;-89
2023/04/20 03:19:26;;;;;;;6.78;1.95;;;7.70;99.90;;;;;;4011652;29;20414;-89
2023/04/20 03:21:28;;;;;;;6.60;1.92;;;7.80;99.90;;;;;;4036974;29;20553;-90
2023/04/20 03:23:29;;;;;;;3.65;1.50;;;7.90;99.90;;;;;;4057943;29;20055;-89
2023/04/20 03:25:31;;;;;;;9.27;1.48;;;7.80;99.90;;;;;;4027665;29;20495;-89
2023/04/20 03:27:34;;;;;;;5.65;1.73;;;8.00;99.90;;;;;;4025285;29;20133;-89
2023/04/20 03:29:35;;;;;;;5.78;1.50;;;8.00;99.90;;;;;;4042826;29;20060;-90
2023/04/20 03:31:36;;;;;;;3.53;1.45;;;8.00;99.90;;;;;;4023816;29;20094;-90
2023/04/20 03:33:38;;;;;;;7.55;1.52;;;8.00;99.90;;;;;;4024782;29;20114;-89
2023/04/20 03:35:39;;;;;;;6.05;2.05;;;8.00;99.90;;;;;;4009133;29;20435;-89
2023/04/20 03:37:40;;;;;;;9.23;1.70;;;8.00;99.90;;;;;;4024798;29;20045;-89
2023/04/20 03:39:42;;;;;;;5.72;1.60;;;8.00;99.30;;;;;;4056735;29;20465;-90
2023/04/20 03:41:44;;;;;;;4.93;1.42;;;8.10;99.00;;;;;;4040312;29;20053;-90
2023/04/20 03:43:45;;;;;;;3.17;1.38;;;8.10;98.90;;;;;;4026378;29;20046;-89
2023/04/20 03:45:46;;;;;;;6.50;1.40;;;7.80;98.50;;;;;;4056236;29;20048;-89
2023/04/20 03:47:47;;;;;;;4.03;1.20;;;8.10;98.40;;;;;;4041592;29;20057;-89
2023/04/20 03:49:48;;;;;;;10.73;1.60;;;8.50;98.50;;;;;;4056405;29;20504;-89
2023/04/20 03:51:50;;;;;;;3.13;1.10;;;8.10;98.00;;;;;;4024436;29;20053;-89
2023/04/20 03:53:52;;;;;;;3.58;1.70;;;8.10;97.90;;;;;;4040315;29;20053;-89
2023/04/20 03:55:54;;;;;;;4.00;1.30;;;8.20;97.90;;;;;;4023591;29;20109;-89
2023/04/20 03:57:56;;;;;;;6.35;1.33;;;8.20;97.80;;;;;;4025126;29;20053;-88
2023/04/20 03:59:57;;;;;;;6.18;1.90;;;8.20;97.80;;;;;;4039624;29;20045;-89
2023/04/20 04:01:58;;;;;;;3.40;1.38;;;8.80;97.90;;;;;;4025186;29;20057;-89
2023/04/20 04:03:59;;;;;;;3.38;1.40;;;8.10;97.60;;;;;;4055106;29;20387;-89
2023/04/20 04:06:00;;;;;;;3.97;1.15;;;8.70;97.80;;;;;;4041071;29;20185;-88
2023/04/20 04:08:02;;;;;;;5.57;1.42;;;8.10;97.70;;;;;;4025183;29;20049;-89
2023/04/20 04:10:04;;;;;;;5.63;1.50;;;8.20;97.80;;;;;;4040708;29;20053;-89
2023/04/20 04:12:05;;;;;;;6.20;1.70;;;8.20;97.60;;;;;;4040722;29;20064;-88
2023/04/20 04:14:06;;;;;;;5.88;1.98;;;8.10;97.40;;;;;;4056615;29;20052;-88
2023/04/20 04:16:08;;;;;;;3.22;1.45;;;8.10;97.60;;;;;;4040555;29;20127;-89
2023/04/20 04:18:10;;;;;;;3.10;1.40;;;8.20;97.60;;;;;;4039508;29;20052;-89
2023/04/20 04:20:15;;;;;;;4.60;1.77;;;8.10;97.30;;;;;;4040722;29;20483;-89
2023/04/20 04:22:15;;;;;;;8.48;1.75;;;8.10;97.30;;;;;;4040524;29;20180;-89
2023/04/20 04:24:17;;;;;;;5.47;1.00;;;8.10;96.90;;;;;;4045114;29;20140;-89
2023/04/20 04:26:23;;;;;;;4.30;1.50;;;8.10;96.80;;;;;;4024477;29;20487;-89
2023/04/20 04:28:24;;;;;;;4.82;1.20;;;8.10;96.60;;;;;;4024257;29;20537;-89
2023/04/20 04:30:26;;;;;;;4.10;1.55;;;8.10;96.80;;;;;;4041498;29;20139;-89
2023/04/20 04:32:28;;;;;;;2.25;1.00;;;8.00;96.50;;;;;;4039865;29;20072;-89
2023/04/20 04:34:38;;;;;;;4.53;1.40;;;8.00;96.30;;;;;;4057479;29;20056;-89
2023/04/20 04:36:38;;;;;;;4.60;1.38;;;8.00;96.20;;;;;;4040777;29;20048;-89
2023/04/20 04:38:45;;;;;;;1.58;0.90;;;7.90;96.00;;;;;;4038964;29;20060;-90
2023/04/20 04:40:47;;;;;;;2.80;1.42;;;7.00;95.30;;;;;;4039590;29;20136;-89
2023/04/20 04:42:48;;;;;;;2.38;1.40;;;6.80;95.50;;;;;;4040260;29;20041;-88
2023/04/20 04:44:51;;;;;;;4.50;1.55;;;8.30;95.80;;;;;;4024309;29;20060;-90
2023/04/20 04:46:52;;;;;;;3.63;2.20;;;7.90;95.70;;;;;;4024918;29;20495;-89
2023/04/20 04:48:55;;;;;;;6.07;1.55;;;7.80;95.80;;;;;;4008341;29;20054;-89
2023/04/20 04:50:57;;;;;;;4.63;1.52;;;7.20;95.70;;;;;;4024270;29;20053;-89
2023/04/20 04:52:57;;;;;;;2.70;1.20;;;7.90;95.90;;;;;;4009099;29;20495;-89
2023/04/20 04:54:59;;;;;;;5.45;1.65;;;8.50;96.20;;;;;;4040620;29;20049;-89
2023/04/20 04:57:01;;;;;;;4.10;1.13;;;7.80;96.00;;;;;;4019355;29;20049;-89
2023/04/20 04:59:02;;;;;;;2.78;1.00;;;7.90;96.10;;;;;;4041966;29;20025;-90
2023/04/20 05:01:03;;;;;;;4.97;1.98;;;7.90;96.00;;;;;;4044963;29;20536;-89
2023/04/20 05:03:05;;;;;;;5.75;1.30;;;7.90;95.90;;;;;;4025875;29;20069;-88
2023/04/20 05:05:07;;;;;;;5.78;1.60;;;7.90;95.90;;;;;;4056890;29;20088;-88
2023/04/20 05:07:12;;;;;;;5.80;1.67;;;7.90;95.70;;;;;;4039953;29;20132;-88
2023/04/20 05:09:14;;;;;;;3.53;1.17;;;6.70;95.50;;;;;;4041372;29;20056;-87
2023/04/20 05:11:15;;;;;;;8.05;2.83;;;8.00;95.70;;;;;;4035575;29;20064;-88
2023/04/20 05:13:16;;;;;;;3.03;1.15;;;8.00;96.00;;;;;;4045141;29;20057;-88
2023/04/20 05:15:18;;;;;;;6.45;1.80;;;7.90;96.10;;;;;;4024654;29;20077;-90
2023/04/20 05:17:20;;;;;;;5.10;1.20;;;7.90;95.80;;;;;;4041290;29;20048;-89
2023/04/20 05:19:22;;;;;;;5.38;1.35;;;7.90;95.70;;;;;;4041477;29;20137;-88
2023/04/20 05:21:23;;;;;;;7.22;2.20;;;7.90;95.80;;;;;;4041197;29;20531;-87
2023/04/20 05:23:28;;;;;;;14.73;2.38;;;7.50;96.00;;;;;;4043861;29;20032;-87
2023/04/20 05:25:30;;;;;;;5.38;1.42;;;7.90;96.40;;;;;;4040313;29;20060;-87
2023/04/20 05:27:32;;;;;;;4.60;1.48;;;7.90;96.60;;;;;;4055878;29;20088;-88
2023/04/20 05:29:39;;;;;;;2.72;1.20;;;7.90;97.10;;;;;;4041294;29;20061;-87
2023/04/20 05:31:40;;;;;;;4.00;1.63;;;7.80;97.80;;;;;;4023926;29;20715;-88
2023/04/20 05:33:42;;;;;;;5.53;1.40;;;7.70;98.60;;;;;;4040231;29;20052;-87
2023/04/20 05:35:43;;;;;;;6.53;1.42;;;7.60;98.70;;;;;;4031755;29;20053;-87
2023/04/20 05:37:43;;;;;;;4.22;1.40;;;7.70;99.20;;;;;;4055607;29;20080;-87
2023/04/20 05:39:47;;;;;;;5.88;2.13;;;7.70;99.40;;;;;;4023083;29;20045;-87
2023/04/20 05:41:48;;;;;;;7.85;1.95;;;7.70;99.90;;;;;;4023051;29;20194;-88
2023/04/20 05:43:48;;;;;;;5.50;1.55;;;7.50;99.90;;;;;;4054453;29;20498;-88
2023/04/20 05:45:50;;;;;;;3.65;1.40;;;7.60;99.90;;;;;;4054678;29;20128;-88
2023/04/20 05:47:56;;;;;;;3.42;1.67;;;7.60;99.90;;;;;;4040922;29;20041;-88
2023/04/20 05:49:58;;;;;;;6.20;1.65;;;7.50;99.90;;;;;;4022969;29;20586;-90
2023/04/20 05:52:00;;;;;;;4.82;1.40;;;6.80;99.90;;;;;;4040615;29;20052;-90
2023/04/20 05:54:02;;;;;;;2.90;1.40;;;7.50;99.90;;;;;;4052974;29;20040;-89
2023/04/20 05:56:05;;;;;;;3.65;1.40;;;7.50;99.90;;;;;;4056262;29;20041;-90
2023/04/20 05:58:06;;;;;;;4.90;2.53;;;7.70;99.90;;;;;;4040411;29;20049;-90
2023/04/20 06:00:14;;;;;;;4.40;1.20;;;6.90;99.90;;;;;;4040235;29;20506;-89
2023/04/20 06:02:16;;;;;;;4.95;1.50;;;7.60;99.90;;;;;;4060110;29;20056;-90
2023/04/20 06:04:17;;;;;;;7.78;1.50;;;8.30;99.90;;;;;;4060377;29;20104;-89
2023/04/20 06:06:18;;;;;;;3.50;1.23;;;8.30;99.90;;;;;;4059994;29;20041;-85
2023/04/20 06:08:20;;;;;;;4.28;1.15;;;7.50;99.90;;;;;;4059828;29;20467;-87
2023/04/20 06:10:21;;;;;;;6.40;1.80;;;7.60;99.90;;;;;;4041239;29;20049;-87
2023/04/20 06:12:22;;;;;;;4.03;1.40;;;7.80;99.90;;;;;;4025610;29;20083;-86
2023/04/20 06:14:23;;;;;;;2.17;1.20;;;7.60;99.90;;;;;;4056168;29;20040;-86
2023/04/20 06:16:24;;;;;;;4.22;1.20;;;7.60;99.90;;;;;;4026342;29;20064;-87
2023/04/20 06:18:25;;;;;;;7.90;1.83;;;7.50;99.90;;;;;;4056137;29;20043;-87
2023/04/20 06:20:26;;;;;;;4.60;1.50;;;7.60;99.90;;;;;;4024817;29;20046;-86
2023/04/20 06:22:27;;;;;;;3.25;1.40;;;7.60;99.90;;;;;;4057884;29;20040;-87
2023/04/20 06:24:29;;;;;;;7.43;1.75;;;7.50;99.90;;;;;;4023544;29;20049;-86
2023/04/20 06:26:30;;;;;;;4.80;1.40;;;7.40;99.90;;;;;;4038420;29;20109;-86
2023/04/20 06:28:31;;;;;;;5.00;1.75;;;;;;;;;;4056238;29;20041;-86
2023/04/20 06:30:33;;;;;;;7.45;1.73;;;7.30;99.90;;;;;;4039869;29;20520;-87
2023/04/20 06:32:34;;;;;;;4.55;1.58;;;7.40;99.90;;;;;;4040344;29;20056;-87
2023/04/20 06:34:36;;;;;;;8.52;1.77;;;7.30;99.90;;;;;;4057832;29;20045;-86
2023/04/20 06:36:41;;;;;;;2.65;1.50;;;7.20;99.90;;;;;;4026451;29;20113;-87
2023/04/20 06:38:44;;;;;;;6.40;1.48;;;7.30;99.90;;;;;;4025902;29;20092;-87
2023/04/20 06:40:45;;;;;;;4.50;1.50;;;7.10;99.90;;;;;;4041700;29;20053;-87
2023/04/20 06:42:46;;;;;;;3.63;2.00;;;7.00;99.90;;;;;;4056514;29;20056;-85
2023/04/20 06:44:47;;;;;;;4.50;1.80;;;7.00;99.90;;;;;;4056309;29;20049;-86
2023/04/20 06:46:54;;;;;;;3.53;1.83;;;6.90;99.90;;;;;;4057639;29;20049;-87
2023/04/20 06:48:57;;;;;;;7.40;2.33;;;6.90;99.90;;;;;;4042529;29;20044;-87
2023/04/20 06:51:00;;;;;;;5.97;1.90;;;6.90;99.90;;;;;;4041179;29;20049;-87
2023/04/20 06:53:02;;;;;;;5.05;2.05;;;6.70;99.90;;;;;;4026411;29;20109;-88
2023/04/20 06:55:03;;;;;;;5.85;1.67;;;7.30;99.90;;;;;;4058300;29;20564;-87
2023/04/20 06:57:05;;;;;;;5.35;1.67;;;6.80;99.90;;;;;;4026561;29;20053;-86
2023/04/20 06:59:07;;;;;;;5.05;2.13;;;7.10;99.90;;;;;;4057916;29;20389;-86
2023/04/20 07:01:09;;;;;;;4.80;1.95;;;6.90;99.90;;;;;;4011685;29;20054;-87
2023/04/20 07:03:10;;;;;;;6.70;1.33;;;7.00;99.90;;;;;;4041335;29;20052;-87
2023/04/20 07:05:13;;;;;;;6.45;1.83;;;6.90;99.90;;;;;;4055741;29;20029;-87
2023/04/20 07:07:15;;;;;;;6.90;1.63;;;6.90;99.90;;;;;;4025356;29;20068;-87
2023/04/20 07:09:18;;;;;;;8.27;2.13;;;6.90;99.90;;;;;;4058361;29;20050;-88
2023/04/20 07:11:18;;;;;;;4.22;1.70;;;7.00;99.90;;;;;;4059284;29;20065;-87
2023/04/20 07:13:20;;;;;;;9.45;1.88;;;6.90;99.90;;;;;;4041470;29;20478;-87
2023/04/20 07:15:21;;;;;;;3.83;1.95;;;6.90;99.90;;;;;;4029495;29;20073;-88
2023/04/20 07:17:26;;;;;;;5.47;2.15;;;7.00;99.90;;;;;;4026695;29;20406;-87
2023/04/20 07:19:26;;;;;;;7.13;2.40;;;7.00;99.90;;;;;;4041807;29;20093;-86
2023/04/20 07:21:30;;;;;;;5.75;2.67;;;7.10;99.90;;;;;;4054584;29;20044;-87
2023/04/20 07:23:31;;;;;;;7.70;2.38;;;7.10;99.90;;;;;;4041008;29;20094;-86
2023/04/20 07:25:31;;;;;;;3.55;1.45;;;7.20;99.90;;;;;;4022867;29;20475;-88
2023/04/20 07:27:38;;;;;;;6.30;1.92;;;7.20;99.90;;;;;;4039650;29;20410;-87
2023/04/20 07:29:45;;;;;;;4.35;2.00;;;7.20;99.90;;;;;;4020549;29;20042;-87
2023/04/20 07:31:46;;;;;;;3.58;1.70;;;7.20;99.90;;;;;;4031716;29;20557;-87
2023/04/20 07:33:48;;;;;;;4.22;1.90;;;6.60;99.90;;;;;;4039748;29;20053;-88
2023/04/20 07:35:49;;;;;;;6.82;1.90;;;7.30;99.90;;;;;;4045773;29;20127;-86
2023/04/20 07:37:52;;;;;;;8.63;2.03;;;7.30;99.90;;;;;;4066317;29;20536;-86
2023/04/20 07:39:53;;;;;;;4.53;2.03;;;7.30;99.90;;;;;;4057801;29;20044;-86
2023/04/20 07:41:53;;;;;;;5.80;1.95;;;7.30;99.90;;;;;;4024707;29;20053;-87
2023/04/20 07:43:54;;;;;;;5.25;2.08;;;7.50;99.90;;;;;;4040151;29;20521;-86
2023/04/20 07:45:55;;;;;;;5.25;2.08;;;7.30;99.90;;;;;;4057095;29;20044;-86
2023/04/20 07:47:56;;;;;;;6.47;1.92;;;6.30;99.90;;;;;;4026689;29;20045;-86
2023/04/20 07:49:57;;;;;;;5.43;1.85;;;7.40;99.90;;;;;;4025100;29;20057;-86
2023/04/20 07:51:58;;;;;;;4.70;1.80;;;7.50;99.90;;;;;;4024963;29;20503;-89
2023/04/20 07:54:00;;;;;;;5.80;2.38;;;7.90;99.90;;;;;;4025698;29;20513;-89
2023/04/20 07:56:03;;;;;;;4.68;2.13;;;6.60;99.90;;;;;;4024500;29;20049;-88
2023/04/20 07:58:05;;;;;;;5.15;2.10;;;7.60;99.90;;;;;;4040844;29;20045;-88
2023/04/20 08:00:07;;;;;;;3.45;1.52;;;7.60;99.90;;;;;;4040266;29;20029;-86
2023/04/20 08:02:08;;;;;;;4.88;2.08;;;6.60;99.90;;;;;;4040377;29;20049;-87
2023/04/20 08:04:08;;;;;;;7.43;2.80;;;7.50;99.90;;;;;;4057761;29;20105;-90
2023/04/20 08:06:09;;;;;;;4.00;1.80;;;7.50;99.90;;;;;;4026368;29;20113;-90
2023/04/20 08:08:10;;;;;;;9.15;1.85;;;7.40;99.90;;;;;;4059606;29;20044;-89
2023/04/20 08:10:12;;;;;;;4.38;1.75;;;7.50;99.90;;;;;;4026901;29;20054;-89
2023/04/20 08:12:13;;;;;;;2.80;1.80;;;7.30;99.90;;;;;;4058926;29;20056;-89
2023/04/20 08:14:15;;;;;;;4.70;2.03;;;7.30;99.90;;;;;;4059976;29;20470;-88
2023/04/20 08:16:15;;;;;;;5.53;2.03;;;7.30;99.90;;;;;;4040315;29;20132;-90
2023/04/20 08:18:16;;;;;;;3.00;2.10;;;7.90;99.90;;;;;;4038576;29;20522;-89
2023/04/20 08:20:18;;;;;;;3.55;2.10;;;7.40;99.90;;;;;;4022350;29;20049;-89
2023/04/20 08:22:20;;;;;;;4.20;1.98;;;7.50;99.90;;;;;;4047415;29;20052;-90
2023/04/20 08:24:22;;;;;;;3.17;2.08;;;7.50;99.90;;;;;;4041048;29;20041;-88
2023/04/20 08:26:24;;;;;;;4.47;2.88;;;6.30;99.90;;;;;;4073458;29;20075;-89
2023/04/20 08:28:25;;;;;;;5.35;2.17;;;7.80;99.90;;;;;;4041794;29;20029;-89
2023/04/20 08:30:26;;;;;;;5.57;2.22;;;7.60;99.90;;;;;;4073177;29;20024;-89
2023/04/20 08:32:28;;;;;;;4.13;2.28;;;7.50;99.90;;;;;;4033237;29;20055;-89
2023/04/20 08:34:29;;;;;;;6.82;2.10;;;7.50;99.90;;;;;;4027079;29;20134;-88
2023/04/20 08:36:31;;;;;;;8.95;2.88;;;7.50;99.90;;;;;;4043299;29;20049;-89
2023/04/20 08:38:32;;;;;;;7.88;2.75;;;8.00;99.90;;;;;;4057281;29;20048;-89
2023/04/20 08:40:36;;;;;;;5.78;2.22;;;7.40;99.90;;;;;;4043217;29;20055;-88
2023/04/20 08:42:37;;;;;;;7.25;2.85;;;7.80;99.90;;;;;;4056818;29;20055;-87
2023/04/20 08:44:39;;;;;;;6.03;2.20;;;7.50;99.90;;;;;;4035753;29;20046;-87
2023/04/20 08:46:45;;;;;;;5.43;3.47;;;7.40;99.90;;;;;;4009793;29;20054;-87
2023/04/20 08:48:47;;;;;;;4.03;1.88;;;7.40;99.90;;;;;;4042051;29;20112;-90
2023/04/20 08:50:49;;;;;;;4.88;2.63;;;7.40;99.90;;;;;;4057587;29;20028;-91
2023/04/20 08:52:56;;;;;;;3.50;2.17;;;6.50;99.90;;;;;;4027185;29;20072;-91
2023/04/20 08:54:57;;;;;;;7.68;2.58;;;7.40;99.90;;;;;;4041263;29;20057;-88
2023/04/20 08:56:58;;;;;;;4.47;2.53;;;7.50;99.90;;;;;;4041262;29;20055;-89
2023/04/20 08:59:02;;;;;;;4.13;2.20;;;7.60;99.90;;;;;;4025147;29;20045;-90
2023/04/20 09:01:03;;;;;;;8.60;2.00;;;7.70;99.90;;;;;;4012515;29;20054;-90
2023/04/20 09:03:05;;;;;;;7.68;3.40;;;7.30;99.90;;;;;;4040089;29;20045;-90
2023/04/20 09:05:07;;;;;;;8.00;2.65;;;7.80;99.90;;;;;;4040796;29;20516;-88
2023/04/20 09:07:19;;;;;;;9.05;2.63;;;7.90;99.90;;;;;;4039384;29;20045;-88
2023/04/20 09:09:22;;;;;;;5.10;2.30;;;8.10;99.90;;;;;;4040213;29;20494;-89
2023/04/20 09:11:28;;;;;;;4.05;2.35;;;8.20;99.90;;;;;;4056986;29;20064;-90
2023/04/20 09:13:31;;;;;;;4.47;2.13;;;8.20;99.90;;;;;;4040310;29;20053;-89
2023/04/20 09:15:32;;;;;;;6.75;2.55;;;8.30;99.90;;;;;;4040133;29;20052;-88
2023/04/20 09:17:39;;;;;;;9.70;2.38;;;8.40;99.90;;;;;;4023687;29;20053;-89
2023/04/20 09:19:43;;;;;;;6.47;3.03;;;8.30;99.90;;;;;;4024278;29;20041;-89
2023/04/20 09:21:51;;;;;;;5.80;2.22;;;8.50;99.90;;;;;;4057104;29;20045;-88
2023/04/20 09:23:56;;;;;;;3.40;1.83;;;8.40;99.90;;;;;;4056048;29;20422;-89
2023/04/20 09:25:59;;;;;;;5.20;2.35;;;8.50;99.90;;;;;;4024263;29;20426;-89
2023/04/20 09:28:01;;;;;;;5.05;2.47;;;8.50;99.90;;;;;;4057297;29;20099;-91
2023/04/20 09:30:03;;;;;;;5.00;2.70;;;8.60;99.90;;;;;;4023212;29;20439;-89
2023/04/20 09:32:04;;;;;;;5.25;2.67;;;8.50;99.90;;;;;;4038233;29;20113;-88
2023/04/20 09:34:06;;;;;;;6.70;2.58;;;8.60;99.90;;;;;;4024857;29;20064;-89
2023/04/20 09:36:07;;;;;;;5.00;2.40;;;8.70;99.90;;;;;;4060287;29;20115;-88
2023/04/20 09:38:09;;;;;;;7.07;2.58;;;9.00;99.90;;;;;;4042026;29;20438;-89
2023/04/20 09:40:10;;;;;;;6.57;2.60;;;8.80;99.90;;;;;;4061441;29;20044;-90
2023/04/20 09:42:14;;;;;;;6.40;2.28;;;8.90;99.90;;;;;;4026858;29;20049;-88
2023/04/20 09:44:16;;;;;;;6.28;2.65;;;8.90;99.90;;;;;;4021239;29;20498;-88
2023/04/20 09:46:17;;;;;;;7.80;2.55;;;8.90;99.90;;;;;;4027280;29;20116;-88
2023/04/20 09:48:19;;;;;;;8.63;2.72;;;9.30;99.90;;;;;;4041449;29;20188;-89
2023/04/20 09:50:20;;;;;;;6.35;2.55;;;9.00;99.90;;;;;;4061770;29;20061;-88
2023/04/20 09:52:25;;;;;;;6.00;2.83;;;9.10;99.90;;;;;;4031480;29;20087;-88
2023/04/20 09:54:26;;;;;;;7.05;2.83;;;9.10;99.90;;;;;;4047270;29;20105;-88
2023/04/20 09:56:29;;;;;;;10.80;3.80;;;9.20;99.90;;;;;;4027218;29;20101;-88
2023/04/20 09:58:31;;;;;;;6.53;2.55;;;9.30;99.90;;;;;;4041453;29;20067;-89
2023/04/20 10:00:32;;;;;;;5.28;2.40;;;9.40;99.90;;;;;;4043601;29;20085;-89
2023/04/20 10:02:34;;;;;;;8.00;2.45;;;9.30;99.90;;;;;;4027311;29;20053;-89
2023/04/20 10:04:36;;;;;;;8.68;3.33;;;9.30;99.90;;;;;;4043275;29;20076;-89
2023/04/20 10:06:37;;;;;;;7.07;3.10;;;9.50;99.90;;;;;;4041899;29;20060;-89
2023/04/20 10:08:41;;;;;;;6.70;2.70;;;9.50;99.90;;;;;;4013102;29;20580;-89
2023/04/20 10:10:49;;;;;;;6.47;2.92;;;9.60;99.90;;;;;;4055435;29;20051;-89
2023/04/20 10:12:58;;;;;;;6.87;2.70;;;9.70;99.90;;;;;;4044853;29;20044;-89
2023/04/20 10:15:00;;;;;;;5.72;2.67;;;9.60;99.90;;;;;;4012022;29;20084;-88
2023/04/20 10:17:06;;;;;;;5.00;2.70;;;9.70;99.90;;;;;;4042387;29;20422;-88
2023/04/20 10:19:07;;;;;;;8.50;3.28;;;9.70;99.90;;;;;;4073084;29;20055;-89
2023/04/20 10:21:09;;;;;;;4.75;2.70;;;10.00;99.90;;;;;;4041499;29;20120;-89
2023/04/20 10:23:17;;;;;;;5.53;3.45;;;9.90;99.90;;;;;;4058526;29;20128;-89
2023/04/20 10:25:23;;;;;;;6.10;2.90;;;8.70;99.90;;;;;;4027232;29;20105;-88
2023/04/20 10:27:24;;;;;;;5.40;3.17;;;9.80;99.90;;;;;;4042430;29;20061;-88
2023/04/20 10:29:26;;;;;;;6.97;3.22;;;9.70;99.90;;;;;;4038186;29;20056;-89
2023/04/20 10:31:38;;;;;;;9.77;3.00;;;9.60;99.90;;;;;;4042551;29;20057;-89
2023/04/20 10:33:53;;;;;;;4.38;2.60;;;9.40;99.90;;;;;;4057226;29;20052;-89
2023/04/20 10:35:56;;;;;;;7.38;3.00;;;8.00;99.90;;;;;;4041646;29;20540;-89
2023/04/20 10:37:57;;;;;;;6.38;2.80;;;9.30;99.90;;;;;;4042776;29;20049;-89
2023/04/20 10:40:00;;;;;;;6.50;2.95;;;9.30;99.90;;;;;;4041677;29;20045;-89
2023/04/20 10:42:00;;;;;;;10.00;3.63;;;8.70;99.90;;;;;;4042854;29;20135;-88
2023/04/20 10:44:10;;;;;;;6.57;2.97;;;9.20;99.90;;;;;;4058104;29;20036;-88